Richboro, PA (18954)

12:07 PM EDT on October 21, 2014 (GMT -0400)
KPARICHB3 | Change Station
CLOSE
Current Station
Personal Weather Station
Location: Richboro, PA
Elevation: 358 ft
Nearby Weather Stations

Elev 358 ft 40.22 °N, 75.01 °W | Updated 2 minutes ago

Clear
Clear
63.9 °F
Feels Like 63.9 °F
N
0.0
Wind Variable Wind from SE
Gusts 0.0 mph

Today
High -- | Low -- °F
--% Chance of Precip.
Yesterday
High -- | Low -- °F
Precip. -- in
7:17 AM 6:11 PM
Waning Crescent, 5% visible
Pressure 29.86 in
Visibility 10.0 miles
Clouds Clear
Dew Point 56 °F
Humidity 69%
Rainfall 0.00 in
Snow Depth Not available.
UV 5 out of 12
Pollen .30 out of 12
Air Quality Not available.
Flu Activity Sporadic
METAR KDYL 211554Z AUTO 00000KT 10SM CLR 17/10 A2986 RMK AO2 SLP111 T01720100

More Conditions Fewer Conditions

Pressure 29.86 in
Visibility 10.0 miles
Clouds Clear
Dew Point 56 °F
Humidity 69%
Rainfall 0.00 in
Snow Depth Not available.
UV 5 out of 12
Pollen .30 out of 12
Air Quality Not available.
Flu Activity Sporadic
METAR KDYL 211554Z AUTO 00000KT 10SM CLR 17/10 A2986 RMK AO2 SLP111 T01720100

More Conditions Fewer Conditions

10-Day Weather Forecast

Almanac

Astronomy

Oct. 21, 2014 Rise Set
Actual Time 7:17 AM EDT 6:11 PM EDT
Civil Twilight 6:49 AM EDT 6:39 PM EDT
Nautical Twilight 6:17 AM EDT 7:10 PM EDT
Astronomical Twilight 5:46 AM EDT 7:42 PM EDT
Moon 4:58 AM EDT 5:04 PM EDT
Length of Visible Light 11h 49m
Length of Day
10h 54m
Tomorrow will be 2m 28s shorter.
Waning Crescent, 5% of the Moon is Illuminated
Today
Waning Crescent
Oct 23
New
Oct 30
First Quarter
Nov 6
Full
Nov 14
Last Quarter

Today's Extremes

State Highs State Lows

Community

WunderPhotos

Upload Photos

1,763,704 photos uploaded!

WunderBlogs® & News

Nearby

Snow Depth

Station Depth Elevation
No new snow has been reported.

Earthquake Activity

City Distance Mag. Time & Date
No recent earthquake activity has been reported nearby.
Minimum magnitude displayed is 2.5.

Coastal Water Temperatures

Place Temperature
No Stations Reporting

Nearby Weather Stations